createdAt,value
2016-09-03T00:00:48.422Z,18.38
2016-09-03T00:01:49.064Z,18.4
2016-09-03T00:02:49.705Z,18.41
2016-09-03T00:03:50.328Z,18.38
2016-09-03T00:04:50.950Z,18.41
2016-09-03T00:05:51.588Z,18.38
2016-09-03T00:06:52.238Z,18.43
2016-09-03T00:07:52.858Z,18.41
2016-09-03T00:08:53.478Z,18.43
2016-09-03T00:09:54.102Z,18.35
2016-09-03T00:10:54.729Z,18.38
2016-09-03T00:11:55.387Z,18.31
2016-09-03T00:12:55.998Z,18.37
2016-09-03T00:13:56.624Z,18.29
2016-09-03T00:14:57.291Z,18.33
2016-09-03T00:15:57.924Z,18.22
2016-09-03T00:16:58.587Z,18.29
2016-09-03T00:17:59.211Z,18.29
2016-09-03T00:18:59.851Z,18.31
2016-09-03T00:20:00.486Z,18.31
2016-09-03T00:21:01.127Z,18.28
2016-09-03T00:22:01.754Z,18.28
2016-09-03T00:23:02.403Z,18.31
2016-09-03T00:24:03.030Z,18.33
2016-09-03T00:25:03.679Z,18.35
2016-09-03T00:26:04.428Z,18.16
2016-09-03T00:27:05.095Z,18.15
2016-09-03T00:28:05.722Z,18.1
2016-09-03T00:29:06.363Z,18.2
2016-09-03T00:30:06.980Z,18.18
2016-09-03T00:31:07.629Z,18.18
2016-09-03T00:32:08.263Z,18.22
2016-09-03T00:33:08.902Z,18.18
2016-09-03T00:34:09.563Z,18.2
2016-09-03T00:35:10.209Z,18.19
2016-09-03T00:36:10.862Z,18.19
2016-09-03T00:37:11.492Z,18.2
2016-09-03T00:38:12.132Z,18.2
2016-09-03T00:39:12.772Z,18.2
2016-09-03T00:40:13.394Z,18.18
2016-09-03T00:41:14.081Z,18.23
2016-09-03T00:42:14.715Z,18.22
2016-09-03T00:43:15.358Z,18.2
2016-09-03T00:44:15.991Z,18.23
2016-09-03T00:45:16.641Z,18.19
2016-09-03T00:46:17.264Z,18.11
2016-09-03T00:47:17.904Z,18.15
2016-09-03T00:48:18.552Z,18.15
2016-09-03T00:49:19.169Z,18.13
2016-09-03T00:50:19.887Z,18.13
2016-09-03T00:51:20.576Z,18.11
2016-09-03T00:52:21.212Z,18.15
2016-09-03T00:53:21.845Z,18.15
2016-09-03T00:54:22.469Z,18.15
2016-09-03T00:55:23.099Z,18.18
2016-09-03T00:56:23.738Z,18.13
2016-09-03T00:57:24.365Z,18.15
2016-09-03T00:58:25.056Z,18.15
2016-09-03T00:59:25.705Z,18.18
2016-09-03T01:00:26.332Z,18.18
2016-09-03T01:01:27.004Z,18.07
2016-09-03T01:02:27.670Z,18.01
2016-09-03T01:03:28.348Z,18.01
2016-09-03T01:04:28.987Z,18.08
2016-09-03T01:05:29.707Z,18.07
2016-09-03T01:06:30.343Z,18.05
2016-09-03T01:07:30.996Z,18
2016-09-03T01:08:31.610Z,18.08
2016-09-03T01:09:32.240Z,18.05
2016-09-03T01:10:32.860Z,18
2016-09-03T01:11:33.492Z,18.05
2016-09-03T01:12:34.135Z,18.01
2016-09-03T01:13:34.772Z,18.05
2016-09-03T01:14:35.410Z,17.97
2016-09-03T01:15:36.037Z,18.04
2016-09-03T01:16:36.689Z,17.95
2016-09-03T01:17:37.360Z,18
2016-09-03T01:18:37.984Z,18.01
2016-09-03T01:19:38.605Z,17.89
2016-09-03T01:20:39.222Z,18
2016-09-03T01:21:39.845Z,17.83
2016-09-03T01:22:40.464Z,17.89
2016-09-03T01:23:41.086Z,17.97
2016-09-03T01:24:41.709Z,17.9
2016-09-03T01:25:42.421Z,17.94
2016-09-03T01:26:43.047Z,17.92
2016-09-03T01:27:43.704Z,17.95
2016-09-03T01:28:44.334Z,17.92
2016-09-03T01:29:44.952Z,17.97
2016-09-03T01:30:45.576Z,17.89
2016-09-03T01:31:46.198Z,18.03
2016-09-03T01:32:46.830Z,17.98
2016-09-03T01:33:47.481Z,18
2016-09-03T01:34:48.150Z,18.04
2016-09-03T01:35:48.784Z,18.07
2016-09-03T01:36:49.415Z,18.04
2016-09-03T01:37:50.053Z,18.1
2016-09-03T01:38:50.704Z,18.07
2016-09-03T01:39:51.343Z,18.07
2016-09-03T01:40:51.960Z,18.07
2016-09-03T01:41:52.625Z,18.05
2016-09-03T01:42:53.249Z,18.01
2016-09-03T01:43:53.868Z,18.11
2016-09-03T01:44:54.533Z,18.04
2016-09-03T01:45:55.158Z,18.04
2016-09-03T01:46:55.827Z,18.04
2016-09-03T01:47:56.448Z,18.08
2016-09-03T01:48:57.091Z,18.18
2016-09-03T01:49:57.726Z,18.18
2016-09-03T01:50:58.347Z,18.08
2016-09-03T01:51:58.992Z,18.15
2016-09-03T01:52:59.656Z,18.08
2016-09-03T01:54:00.300Z,18.2
2016-09-03T01:55:00.957Z,18.01
2016-09-03T01:56:01.618Z,18.04
2016-09-03T01:57:02.250Z,18.04
2016-09-03T01:58:02.879Z,18.07
2016-09-03T01:59:03.539Z,18.07
2016-09-03T02:00:04.162Z,18.1
2016-09-03T02:01:04.834Z,18.1
2016-09-03T02:02:05.447Z,18.03
2016-09-03T02:03:06.075Z,18
2016-09-03T02:04:06.726Z,18.03
2016-09-03T02:05:07.365Z,18.11
2016-09-03T02:06:07.988Z,18.13
2016-09-03T02:07:08.637Z,18.05
2016-09-03T02:08:09.336Z,18.04
2016-09-03T02:09:09.977Z,18.08
2016-09-03T02:10:10.611Z,18.07
2016-09-03T02:11:11.245Z,18.1
2016-09-03T02:12:11.881Z,17.98
2016-09-03T02:13:12.533Z,18.05
2016-09-03T02:14:13.181Z,18.01
2016-09-03T02:15:13.856Z,18
2016-09-03T02:16:14.488Z,18.04
2016-09-03T02:17:15.117Z,17.98
2016-09-03T02:18:15.754Z,18
2016-09-03T02:19:16.380Z,18
2016-09-03T02:20:17.033Z,17.98
2016-09-03T02:21:17.694Z,18.04
2016-09-03T02:22:18.323Z,17.98
2016-09-03T02:23:18.955Z,18.01
2016-09-03T02:24:19.576Z,18.07
2016-09-03T02:25:20.248Z,18
2016-09-03T02:26:20.918Z,18
2016-09-03T02:27:21.552Z,18
2016-09-03T02:28:22.191Z,18.01
2016-09-03T02:29:22.841Z,17.98
2016-09-03T02:30:23.475Z,18.03
2016-09-03T02:31:24.121Z,18.04
2016-09-03T02:32:24.754Z,18.04
2016-09-03T02:33:25.422Z,18.03
2016-09-03T02:34:26.093Z,18.01
2016-09-03T02:35:26.717Z,18.05
2016-09-03T02:36:27.354Z,18.04
2016-09-03T02:37:27.996Z,18.04
2016-09-03T02:38:28.635Z,18.1
2016-09-03T02:39:29.262Z,18.01
2016-09-03T02:40:29.918Z,18.01
2016-09-03T02:41:30.544Z,18.1
2016-09-03T02:42:31.174Z,17.97
2016-09-03T02:43:31.860Z,18.07
2016-09-03T02:44:32.519Z,18.04
2016-09-03T02:45:33.153Z,18.04
2016-09-03T02:46:33.793Z,18.04
2016-09-03T02:47:34.459Z,18.08
2016-09-03T02:48:35.102Z,18.04
2016-09-03T02:49:35.740Z,18.11
2016-09-03T02:50:36.568Z,18.15
2016-09-03T02:51:37.218Z,18.16
2016-09-03T02:52:37.859Z,18.01
2016-09-03T02:53:38.647Z,18.04
2016-09-03T02:54:39.876Z,18.04
2016-09-03T02:55:40.524Z,18.03
2016-09-03T02:56:41.171Z,18.08
2016-09-03T02:57:41.813Z,18.08
2016-09-03T02:58:42.901Z,18.07
2016-09-03T02:59:43.972Z,18.05
2016-09-03T03:00:45.396Z,18.05
2016-09-03T03:01:46.816Z,18.05
2016-09-03T03:02:47.945Z,18.07
2016-09-03T03:03:48.935Z,18.04
2016-09-03T03:04:50.263Z,18.13
2016-09-03T03:05:50.904Z,18.07
2016-09-03T03:06:51.530Z,18.01
2016-09-03T03:07:52.149Z,18.05
2016-09-03T03:08:52.798Z,18.07
2016-09-03T03:09:53.428Z,18.1
2016-09-03T03:10:54.054Z,18.08
2016-09-03T03:11:54.687Z,18.03
2016-09-03T03:12:55.339Z,18.08
2016-09-03T03:13:55.965Z,18.22
2016-09-03T03:14:56.607Z,18.04
2016-09-03T03:15:57.251Z,18.13
2016-09-03T03:16:57.925Z,18.05
2016-09-03T03:17:58.575Z,18.04
2016-09-03T03:18:59.200Z,17.98
2016-09-03T03:19:59.861Z,18.03
2016-09-03T03:21:00.504Z,18.15
2016-09-03T03:22:01.153Z,18.04
2016-09-03T03:23:01.826Z,18.07
2016-09-03T03:24:02.462Z,18.04
2016-09-03T03:25:03.104Z,18.07
2016-09-03T03:26:03.739Z,18.07
2016-09-03T03:27:04.392Z,17.98
2016-09-03T03:28:05.022Z,18.08
2016-09-03T03:29:05.657Z,18.08
2016-09-03T03:30:06.314Z,18.05
2016-09-03T03:31:06.982Z,18
2016-09-03T03:32:07.615Z,17.95
2016-09-03T03:33:08.240Z,18.01
2016-09-03T03:34:08.866Z,18
2016-09-03T03:35:09.503Z,17.94
2016-09-03T03:36:10.141Z,18
2016-09-03T03:37:10.769Z,18.01
2016-09-03T03:38:11.392Z,18.04
2016-09-03T03:39:12.034Z,18.05
2016-09-03T03:40:12.672Z,17.95
2016-09-03T03:41:13.307Z,18.03
2016-09-03T03:42:13.936Z,18.08
2016-09-03T03:43:14.572Z,18.03
2016-09-03T03:44:15.276Z,18
2016-09-03T03:45:15.927Z,18.08
2016-09-03T03:46:16.549Z,17.9
2016-09-03T03:47:17.185Z,18.1
2016-09-03T03:48:17.832Z,18.04
2016-09-03T03:49:18.471Z,18.05
2016-09-03T03:50:19.109Z,18
2016-09-03T03:51:19.743Z,17.98
2016-09-03T03:52:20.455Z,18.08
2016-09-03T03:53:21.079Z,18.03
2016-09-03T03:54:21.722Z,18.05
2016-09-03T03:55:22.362Z,18.03
2016-09-03T03:56:23.004Z,18.08
2016-09-03T03:57:23.650Z,18.07
2016-09-03T03:58:24.292Z,18.03
2016-09-03T03:59:24.942Z,18.01
2016-09-03T04:00:25.572Z,18.08
2016-09-03T04:01:26.181Z,18.04
2016-09-03T04:02:26.812Z,18.05
2016-09-03T04:03:27.437Z,18.1
2016-09-03T04:04:28.066Z,18.08
2016-09-03T04:05:28.690Z,18.07
2016-09-03T04:06:29.339Z,18.04
2016-09-03T04:07:29.971Z,18.04
2016-09-03T04:08:30.592Z,18
2016-09-03T04:09:31.236Z,18.01
2016-09-03T04:10:31.860Z,17.92
2016-09-03T04:11:32.509Z,18
2016-09-03T04:12:33.139Z,17.94
2016-09-03T04:13:33.796Z,17.86
2016-09-03T04:14:34.423Z,17.92
2016-09-03T04:15:35.054Z,17.97
2016-09-03T04:16:35.699Z,17.95
2016-09-03T04:17:36.325Z,17.95
2016-09-03T04:18:36.958Z,17.9
2016-09-03T04:19:37.605Z,17.9
2016-09-03T04:20:38.247Z,17.87
2016-09-03T04:21:38.865Z,17.87
2016-09-03T04:22:39.506Z,17.83
2016-09-03T04:23:40.133Z,17.87
2016-09-03T04:24:40.763Z,17.76
2016-09-03T04:25:41.430Z,17.74
2016-09-03T04:26:42.062Z,17.71
2016-09-03T04:27:42.703Z,17.67
2016-09-03T04:28:43.352Z,17.67
2016-09-03T04:29:43.976Z,17.72
2016-09-03T04:30:44.616Z,17.7
2016-09-03T04:31:45.242Z,17.7
2016-09-03T04:32:45.878Z,17.7
2016-09-03T04:33:46.507Z,17.82
2016-09-03T04:34:47.143Z,17.76
2016-09-03T04:35:47.763Z,17.67
2016-09-03T04:36:48.395Z,17.76
2016-09-03T04:37:49.027Z,17.76
2016-09-03T04:38:49.660Z,17.67
2016-09-03T04:39:50.302Z,17.65
2016-09-03T04:40:50.928Z,17.65
2016-09-03T04:41:51.561Z,17.68
2016-09-03T04:42:52.249Z,17.76
2016-09-03T04:43:52.911Z,17.71
2016-09-03T04:44:53.563Z,17.68
2016-09-03T04:45:54.209Z,17.68
2016-09-03T04:46:54.843Z,17.7
2016-09-03T04:47:55.484Z,17.72
2016-09-03T04:48:56.112Z,17.78
2016-09-03T04:49:56.754Z,17.74
2016-09-03T04:50:57.391Z,17.83
2016-09-03T04:51:58.031Z,17.82
2016-09-03T04:52:58.668Z,17.83
2016-09-03T04:53:59.297Z,17.86
2016-09-03T04:54:59.932Z,17.79
2016-09-03T04:56:00.601Z,17.83
2016-09-03T04:57:01.226Z,17.85
2016-09-03T04:58:01.849Z,17.94
2016-09-03T04:59:02.505Z,17.95
2016-09-03T05:00:03.124Z,17.97
2016-09-03T05:01:03.768Z,18.01
2016-09-03T05:02:04.397Z,17.95
2016-09-03T05:03:05.057Z,17.92
2016-09-03T05:04:05.692Z,17.92
2016-09-03T05:05:06.343Z,17.83
2016-09-03T05:06:06.987Z,17.85
2016-09-03T05:07:07.638Z,17.87
2016-09-03T05:08:08.302Z,17.92
2016-09-03T05:09:08.985Z,17.92
2016-09-03T05:10:09.681Z,18
2016-09-03T05:11:10.354Z,17.95
2016-09-03T05:12:10.976Z,18.01
2016-09-03T05:13:11.629Z,18.01
2016-09-03T05:14:12.294Z,17.95
2016-09-03T05:15:12.936Z,17.98
2016-09-03T05:16:13.601Z,18
2016-09-03T05:17:14.269Z,18.04
2016-09-03T05:18:14.956Z,18.03
2016-09-03T05:19:15.660Z,18.04
2016-09-03T05:20:16.299Z,18.07
2016-09-03T05:21:16.948Z,18.1
2016-09-03T05:22:17.593Z,18.1
2016-09-03T05:23:18.220Z,18.19
2016-09-03T05:24:18.866Z,18.16
2016-09-03T05:25:19.491Z,18.13
2016-09-03T05:26:20.111Z,18.15
2016-09-03T05:27:20.782Z,18.16
2016-09-03T05:28:21.439Z,18.13
2016-09-03T05:29:22.045Z,18.19
2016-09-03T05:30:22.672Z,18.2
2016-09-03T05:31:23.399Z,18.25
2016-09-03T05:32:24.029Z,18.18
2016-09-03T05:33:24.663Z,18.26
2016-09-03T05:34:25.335Z,18.19
2016-09-03T05:35:25.966Z,18.23
2016-09-03T05:36:26.627Z,18.19
2016-09-03T05:37:27.276Z,18.2
2016-09-03T05:38:27.919Z,18.18
2016-09-03T05:39:28.599Z,18.16
2016-09-03T05:40:29.260Z,18.05
2016-09-03T05:41:29.929Z,18.18
2016-09-03T05:42:30.587Z,18.23
2016-09-03T05:43:31.258Z,18.22
2016-09-03T05:44:31.910Z,18.25
2016-09-03T05:45:32.544Z,18.2
2016-09-03T05:46:33.231Z,18.2
2016-09-03T05:47:33.874Z,18.28
2016-09-03T05:48:34.542Z,18.28
2016-09-03T05:49:35.202Z,18.33
2016-09-03T05:50:35.867Z,18.28
2016-09-03T05:51:36.581Z,18.23
2016-09-03T05:52:37.246Z,18.08
2016-09-03T05:53:37.886Z,18.2
2016-09-03T05:54:38.527Z,18.08
2016-09-03T05:55:39.169Z,18.19
2016-09-03T05:56:39.852Z,18.2
2016-09-03T05:57:40.617Z,18.29
2016-09-03T05:58:41.281Z,18.28
2016-09-03T05:59:41.947Z,18.34
2016-09-03T06:00:42.602Z,18.31
2016-09-03T06:01:43.286Z,18.31
2016-09-03T06:02:43.936Z,18.26
2016-09-03T06:03:44.583Z,18.34
2016-09-03T06:04:45.233Z,18.31
2016-09-03T06:05:45.901Z,18.31
2016-09-03T06:06:46.551Z,18.31
2016-09-03T06:07:47.323Z,18.28
2016-09-03T06:08:47.984Z,18.41
2016-09-03T06:09:48.638Z,18.47
2016-09-03T06:10:49.296Z,18.47
2016-09-03T06:11:49.949Z,18.41
2016-09-03T06:12:50.601Z,18.5
2016-09-03T06:13:51.249Z,18.55
2016-09-03T06:14:51.897Z,18.66
2016-09-03T06:15:52.548Z,18.65
2016-09-03T06:16:53.217Z,18.62
2016-09-03T06:17:53.903Z,18.58
2016-09-03T06:18:54.533Z,18.71
2016-09-03T06:19:55.174Z,18.66
2016-09-03T06:20:55.804Z,18.66
2016-09-03T06:21:56.431Z,18.65
2016-09-03T06:22:57.068Z,18.56
2016-09-03T06:23:57.703Z,18.53
2016-09-03T06:24:58.342Z,18.47
2016-09-03T06:25:58.994Z,18.55
2016-09-03T06:26:59.638Z,18.56
2016-09-03T06:28:00.271Z,18.59
2016-09-03T06:29:00.981Z,18.58
2016-09-03T06:30:01.553Z,18.74
2016-09-03T06:31:02.182Z,18.74
2016-09-03T06:32:02.845Z,18.62
2016-09-03T06:33:03.471Z,18.62
2016-09-03T06:34:04.107Z,18.52
2016-09-03T06:35:04.780Z,18.58
2016-09-03T06:36:05.429Z,18.53
2016-09-03T06:37:06.072Z,18.55
2016-09-03T06:38:06.683Z,18.55
2016-09-03T06:39:07.312Z,18.55
2016-09-03T06:40:07.964Z,18.58
2016-09-03T06:41:08.601Z,18.53
2016-09-03T06:42:09.257Z,18.52
2016-09-03T06:43:09.911Z,18.5
2016-09-03T06:44:10.559Z,18.5
2016-09-03T06:45:11.206Z,18.49
2016-09-03T06:46:11.835Z,18.41
2016-09-03T06:47:12.479Z,18.4
2016-09-03T06:48:13.146Z,18.45
2016-09-03T06:49:13.773Z,18.55
2016-09-03T06:50:14.415Z,18.58
2016-09-03T06:51:15.080Z,18.65
2016-09-03T06:52:15.732Z,18.59
2016-09-03T06:53:16.359Z,18.59
2016-09-03T06:54:17.032Z,18.58
2016-09-03T06:55:17.702Z,18.66
2016-09-03T06:56:18.388Z,18.66
2016-09-03T06:57:19.047Z,18.88
2016-09-03T06:58:19.674Z,18.95
2016-09-03T06:59:20.338Z,18.9
2016-09-03T07:00:21.018Z,18.96
2016-09-03T07:01:21.683Z,18.98
2016-09-03T07:02:22.318Z,19
2016-09-03T07:03:22.969Z,19.27
2016-09-03T07:04:23.650Z,19.51
2016-09-03T07:05:24.300Z,19.74
2016-09-03T07:06:24.947Z,19.77
2016-09-03T07:07:25.612Z,20.11
2016-09-03T07:08:26.252Z,20.5
2016-09-03T07:09:26.896Z,20.97
2016-09-03T07:10:27.542Z,21.02
2016-09-03T07:11:28.196Z,21.24
2016-09-03T07:12:28.861Z,21.62
2016-09-03T07:13:29.501Z,21.62
2016-09-03T07:14:30.161Z,21.35
2016-09-03T07:15:30.825Z,21.55
2016-09-03T07:16:31.514Z,21.91
2016-09-03T07:17:32.487Z,22.17
2016-09-03T07:18:34.207Z,22.18
2016-09-03T07:19:34.857Z,22.28
2016-09-03T07:20:35.480Z,21.89
2016-09-03T07:21:36.140Z,21.51
2016-09-03T07:22:36.832Z,21.55
2016-09-03T07:23:37.493Z,21.52
2016-09-03T07:24:38.169Z,21.5
2016-09-03T07:25:38.833Z,21.46
2016-09-03T07:26:39.517Z,21.64
2016-09-03T07:27:40.172Z,21.89
2016-09-03T07:28:40.883Z,21.95
2016-09-03T07:29:41.623Z,21.99
2016-09-03T07:30:42.284Z,22
2016-09-03T07:31:42.921Z,21.83
2016-09-03T07:32:43.636Z,21.21
2016-09-03T07:33:44.292Z,20.99
2016-09-03T07:34:44.941Z,20.87
2016-09-03T07:35:45.596Z,20.75
2016-09-03T07:36:46.269Z,20.63
2016-09-03T07:37:46.910Z,20.67
2016-09-03T07:38:47.570Z,20.63
2016-09-03T07:39:48.249Z,20.44
2016-09-03T07:40:48.887Z,20.34
2016-09-03T07:41:49.588Z,20.31
2016-09-03T07:42:50.313Z,20.19
2016-09-03T07:43:51.056Z,20.07
2016-09-03T07:44:51.751Z,20.04
2016-09-03T07:45:52.420Z,19.85
2016-09-03T07:46:53.055Z,19.76
2016-09-03T07:47:53.719Z,19.85
2016-09-03T07:48:54.351Z,19.77
2016-09-03T07:49:55.053Z,19.77
2016-09-03T07:50:55.737Z,19.71
2016-09-03T07:51:56.414Z,19.67
2016-09-03T07:52:57.070Z,19.56
2016-09-03T07:53:57.747Z,19.55
2016-09-03T07:54:58.436Z,19.58
2016-09-03T07:55:59.258Z,19.55
2016-09-03T07:56:59.932Z,19.51
2016-09-03T07:58:00.594Z,19.44
2016-09-03T07:59:01.300Z,19.48
2016-09-03T08:00:02.001Z,19.54
2016-09-03T08:01:02.703Z,19.26
2016-09-03T08:02:03.347Z,19.31
2016-09-03T08:03:04.013Z,19.3
2016-09-03T08:04:04.695Z,19.24
2016-09-03T08:05:05.377Z,19.39
2016-09-03T08:06:06.045Z,19.48
2016-09-03T08:07:06.731Z,19.47
2016-09-03T08:08:07.389Z,19.47
2016-09-03T08:09:08.046Z,19.54
2016-09-03T08:10:08.706Z,19.56
2016-09-03T08:11:09.365Z,19.55
2016-09-03T08:12:10.024Z,19.59
2016-09-03T08:13:10.682Z,19.59
2016-09-03T08:14:11.431Z,19.56
2016-09-03T08:15:12.080Z,19.59
2016-09-03T08:16:12.736Z,19.59
2016-09-03T08:17:13.401Z,19.67
2016-09-03T08:18:14.044Z,19.62
2016-09-03T08:19:14.677Z,19.55
2016-09-03T08:20:15.365Z,19.48
2016-09-03T08:21:16.005Z,19.41
2016-09-03T08:22:16.678Z,19.29
2016-09-03T08:23:17.495Z,19.39
2016-09-03T08:24:18.225Z,19.37
2016-09-03T08:25:18.881Z,19.24
2016-09-03T08:26:19.512Z,19.26
2016-09-03T08:27:20.229Z,19.22
2016-09-03T08:28:20.856Z,19.21
2016-09-03T08:29:21.490Z,19.15
2016-09-03T08:30:22.127Z,19.15
2016-09-03T08:31:22.758Z,19.21
2016-09-03T08:32:23.390Z,19.11
2016-09-03T08:33:24.050Z,18.99
2016-09-03T08:34:24.674Z,18.99
2016-09-03T08:35:25.355Z,19
2016-09-03T08:36:26.015Z,19.02
2016-09-03T08:37:26.647Z,19.04
2016-09-03T08:38:27.273Z,19.09
2016-09-03T08:39:27.928Z,18.98
2016-09-03T08:40:28.708Z,18.95
2016-09-03T08:41:29.379Z,18.98
2016-09-03T08:42:30.015Z,18.9
2016-09-03T08:43:30.675Z,18.95
2016-09-03T08:44:31.352Z,18.9
2016-09-03T08:45:32.021Z,18.86
2016-09-03T08:46:32.600Z,18.99
2016-09-03T08:47:33.260Z,18.92
2016-09-03T08:48:33.905Z,18.88
2016-09-03T08:49:34.570Z,18.92
2016-09-03T08:50:35.236Z,18.9
2016-09-03T08:51:35.856Z,18.99
2016-09-03T08:52:36.583Z,18.89
2016-09-03T08:53:37.206Z,18.88
2016-09-03T08:54:37.843Z,18.89
2016-09-03T08:55:38.490Z,18.95
2016-09-03T08:56:39.123Z,18.98
2016-09-03T08:57:39.764Z,18.96
2016-09-03T08:58:40.405Z,18.95
2016-09-03T08:59:41.047Z,18.98
2016-09-03T09:00:41.683Z,18.9
2016-09-03T09:01:42.321Z,18.89
2016-09-03T09:02:42.971Z,18.98
2016-09-03T09:03:43.611Z,18.93
2016-09-03T09:04:44.259Z,18.92
2016-09-03T09:05:44.902Z,18.88
2016-09-03T09:06:45.715Z,18.93
2016-09-03T09:07:46.521Z,18.88
2016-09-03T09:08:47.151Z,18.9
2016-09-03T09:09:47.856Z,18.81
2016-09-03T09:10:48.428Z,18.9
2016-09-03T09:11:49.231Z,18.88
2016-09-03T09:12:49.977Z,18.9
2016-09-03T09:13:50.870Z,18.99
2016-09-03T09:14:51.629Z,18.9
2016-09-03T09:15:52.448Z,18.96
2016-09-03T09:16:53.180Z,18.89
2016-09-03T09:17:53.876Z,18.96
2016-09-03T09:18:54.569Z,18.89
2016-09-03T09:19:55.434Z,18.9
2016-09-03T09:20:56.116Z,18.95
2016-09-03T09:21:56.808Z,18.93
2016-09-03T09:22:57.480Z,18.9
2016-09-03T09:23:58.164Z,18.92
2016-09-03T09:24:58.829Z,18.89
2016-09-03T09:25:59.520Z,18.96
2016-09-03T09:27:00.183Z,18.89
2016-09-03T09:28:00.904Z,18.99
2016-09-03T09:29:01.520Z,18.93
2016-09-03T09:30:02.320Z,18.89
2016-09-03T09:31:03.402Z,18.83
2016-09-03T09:32:03.750Z,18.8
2016-09-03T09:33:04.419Z,18.83
2016-09-03T09:34:05.087Z,18.8
2016-09-03T09:35:05.892Z,18.78
2016-09-03T09:36:06.580Z,18.86
2016-09-03T09:37:07.204Z,18.8
2016-09-03T09:38:07.856Z,18.75
2016-09-03T09:39:08.505Z,18.68
2016-09-03T09:40:09.277Z,18.73
2016-09-03T09:41:09.915Z,18.71
2016-09-03T09:42:10.553Z,18.66
2016-09-03T09:43:11.240Z,18.62
2016-09-03T09:44:11.919Z,18.5
2016-09-03T09:45:12.581Z,18.44
2016-09-03T09:46:13.212Z,18.53
2016-09-03T09:47:13.865Z,18.41
2016-09-03T09:48:14.505Z,18.37
2016-09-03T09:49:15.138Z,18.43
2016-09-03T09:50:15.782Z,18.28
2016-09-03T09:51:16.422Z,18.31
2016-09-03T09:52:17.052Z,18.19
2016-09-03T09:53:17.688Z,18.2
2016-09-03T09:54:18.323Z,18.23
2016-09-03T09:55:19.337Z,18.19
2016-09-03T09:56:19.983Z,18.18
2016-09-03T09:57:20.653Z,18.19
2016-09-03T09:58:21.303Z,18.2
2016-09-03T09:59:21.931Z,18.11
2016-09-03T10:00:22.563Z,18.08
2016-09-03T10:01:23.182Z,18.18
2016-09-03T10:02:23.809Z,18.19
2016-09-03T10:03:24.478Z,18.23
2016-09-03T10:04:25.159Z,18.19
2016-09-03T10:05:25.775Z,18.35
2016-09-03T10:06:26.437Z,18.33
2016-09-03T10:07:27.117Z,18.26
2016-09-03T10:08:27.780Z,18.22
2016-09-03T10:09:28.445Z,18.2
2016-09-03T10:10:29.079Z,18.25
2016-09-03T10:11:29.728Z,18.22
2016-09-03T10:12:30.376Z,18.29
2016-09-03T10:13:30.990Z,18.34
2016-09-03T10:14:31.657Z,18.33
2016-09-03T10:15:32.283Z,18.25
2016-09-03T10:16:32.970Z,18.35
2016-09-03T10:17:33.623Z,18.31
2016-09-03T10:18:34.284Z,18.2
2016-09-03T10:19:34.922Z,18.19
2016-09-03T10:20:35.595Z,18.23
2016-09-03T10:21:36.266Z,18.28
2016-09-03T10:22:36.885Z,18.37
2016-09-03T10:23:37.535Z,18.37
2016-09-03T10:24:38.176Z,18.35
2016-09-03T10:25:38.843Z,18.37
2016-09-03T10:26:39.462Z,18.44
2016-09-03T10:27:40.086Z,18.49
2016-09-03T10:28:40.717Z,18.52
2016-09-03T10:29:41.399Z,18.62
2016-09-03T10:30:42.060Z,18.8
2016-09-03T10:31:42.756Z,18.78
2016-09-03T10:32:43.389Z,18.86
2016-09-03T10:33:44.056Z,18.89
2016-09-03T10:34:44.737Z,19.12
2016-09-03T10:35:45.378Z,19.12
2016-09-03T10:36:46.065Z,19.21
2016-09-03T10:37:46.716Z,19.41
2016-09-03T10:38:47.386Z,19.41
2016-09-03T10:39:48.056Z,19.44
2016-09-03T10:40:48.703Z,19.34
2016-09-03T10:41:49.343Z,19.36
2016-09-03T10:42:49.976Z,19.49
2016-09-03T10:43:50.636Z,19.56
2016-09-03T10:44:51.292Z,19.59
2016-09-03T10:45:51.939Z,19.56
2016-09-03T10:46:52.589Z,19.56
2016-09-03T10:47:53.250Z,19.54
2016-09-03T10:48:53.897Z,19.54
2016-09-03T10:49:54.545Z,19.45
2016-09-03T10:50:55.256Z,19.52
2016-09-03T10:51:55.922Z,19.52
2016-09-03T10:52:56.561Z,19.52
2016-09-03T10:53:57.232Z,19.59
2016-09-03T10:54:57.894Z,19.48
2016-09-03T10:55:58.567Z,19.41
2016-09-03T10:56:59.236Z,19.47
2016-09-03T10:57:59.904Z,19.45
2016-09-03T10:59:00.550Z,19.4
2016-09-03T11:00:01.203Z,19.37
2016-09-03T11:01:01.869Z,19.47
2016-09-03T11:02:02.504Z,19.48
2016-09-03T11:03:03.143Z,19.55
2016-09-03T11:04:03.797Z,19.58
2016-09-03T11:05:04.484Z,19.7
2016-09-03T11:06:05.148Z,19.76
2016-09-03T11:07:05.841Z,19.76
2016-09-03T11:08:06.482Z,19.77
2016-09-03T11:09:07.124Z,19.84
2016-09-03T11:10:07.770Z,19.95
2016-09-03T11:11:08.416Z,19.94
2016-09-03T11:12:09.044Z,19.88
2016-09-03T11:13:09.715Z,19.88
2016-09-03T11:14:10.389Z,19.86
2016-09-03T11:15:11.038Z,19.94
2016-09-03T11:16:11.677Z,19.86
2016-09-03T11:17:12.330Z,19.96
2016-09-03T11:18:12.963Z,19.96
2016-09-03T11:19:13.614Z,19.96
2016-09-03T11:20:14.275Z,20.02
2016-09-03T11:21:14.929Z,20.02
2016-09-03T11:22:15.555Z,20.03
2016-09-03T11:23:16.207Z,19.99
2016-09-03T11:24:16.867Z,19.99
2016-09-03T11:25:17.523Z,19.92
2016-09-03T11:26:18.170Z,19.89
2016-09-03T11:27:18.809Z,19.79
2016-09-03T11:28:19.471Z,19.74
2016-09-03T11:29:20.135Z,19.88
2016-09-03T11:30:20.789Z,19.84
2016-09-03T11:31:21.448Z,19.92
2016-09-03T11:32:22.115Z,19.92
2016-09-03T11:33:22.775Z,19.94
2016-09-03T11:34:23.565Z,19.95
2016-09-03T11:35:24.251Z,19.96
2016-09-03T11:36:24.912Z,19.95
2016-09-03T11:37:25.581Z,19.96
2016-09-03T11:38:26.293Z,19.95
2016-09-03T11:39:26.944Z,20.02
2016-09-03T11:40:27.600Z,20
2016-09-03T11:41:28.276Z,20
2016-09-03T11:42:29.097Z,20
2016-09-03T11:43:29.704Z,20.02
2016-09-03T11:44:30.393Z,20.02
2016-09-03T11:45:31.031Z,19.96
2016-09-03T11:46:31.698Z,19.96
2016-09-03T11:47:32.336Z,20.02
2016-09-03T11:48:33.028Z,19.99
2016-09-03T11:49:33.744Z,19.96
2016-09-03T11:50:34.403Z,20.02
2016-09-03T11:51:35.071Z,20.1
2016-09-03T11:52:35.707Z,20.07
2016-09-03T11:53:36.346Z,20.16
2016-09-03T11:54:37.006Z,20.14
2016-09-03T11:55:37.656Z,20.13
2016-09-03T11:56:38.295Z,20.13
2016-09-03T11:57:38.993Z,20.19
2016-09-03T11:58:39.686Z,20.21
2016-09-03T11:59:40.318Z,20.26
2016-09-03T12:00:40.982Z,20.24
2016-09-03T12:01:41.661Z,20.31
2016-09-03T12:02:42.323Z,20.37
2016-09-03T12:03:43.036Z,20.34
2016-09-03T12:04:43.700Z,20.41
2016-09-03T12:05:44.346Z,20.47
2016-09-03T12:06:45.043Z,20.5
2016-09-03T12:07:45.688Z,20.55
2016-09-03T12:08:46.361Z,20.51
2016-09-03T12:09:47.011Z,20.43
2016-09-03T12:10:47.654Z,20.43
2016-09-03T12:11:48.321Z,20.44
2016-09-03T12:12:48.963Z,20.39
2016-09-03T12:13:49.615Z,20.22
2016-09-03T12:14:50.345Z,20.32
2016-09-03T12:15:51.026Z,20.48
2016-09-03T12:16:51.670Z,20.5
2016-09-03T12:17:52.315Z,20.52
2016-09-03T12:18:52.998Z,20.67
2016-09-03T12:19:53.648Z,20.67
2016-09-03T12:20:54.306Z,20.7
2016-09-03T12:21:54.941Z,20.51
2016-09-03T12:22:55.595Z,20.44
2016-09-03T12:23:56.251Z,20.44
2016-09-03T12:24:56.891Z,20.43
2016-09-03T12:25:57.533Z,20.48
2016-09-03T12:26:58.185Z,20.32
2016-09-03T12:27:58.825Z,20.34
2016-09-03T12:28:59.479Z,20.4
2016-09-03T12:30:00.183Z,20.34
2016-09-03T12:31:00.858Z,20.39
2016-09-03T12:32:01.490Z,20.34
2016-09-03T12:33:02.136Z,20.34
2016-09-03T12:34:02.784Z,20.36
2016-09-03T12:35:03.423Z,20.44
2016-09-03T12:36:04.069Z,20.4
2016-09-03T12:37:04.716Z,20.47
2016-09-03T12:38:05.403Z,20.47
2016-09-03T12:39:06.075Z,20.5
2016-09-03T12:40:06.730Z,20.51
2016-09-03T12:41:07.383Z,20.48
2016-09-03T12:42:08.064Z,20.51
2016-09-03T12:43:08.774Z,20.72
2016-09-03T12:44:09.430Z,20.78
2016-09-03T12:45:10.099Z,20.69
2016-09-03T12:46:10.735Z,20.75
2016-09-03T12:47:11.382Z,20.81
2016-09-03T12:48:12.016Z,20.81
2016-09-03T12:49:12.679Z,20.85
2016-09-03T12:50:13.322Z,20.96
2016-09-03T12:51:14.002Z,20.81
2016-09-03T12:52:14.667Z,20.82
2016-09-03T12:53:15.316Z,20.97
2016-09-03T12:54:15.989Z,20.81
2016-09-03T12:55:16.631Z,20.93
2016-09-03T12:56:17.275Z,20.95
2016-09-03T12:57:17.920Z,21
2016-09-03T12:58:18.552Z,20.97
2016-09-03T12:59:19.206Z,20.88
2016-09-03T13:00:19.865Z,20.92
2016-09-03T13:01:20.520Z,20.99
2016-09-03T13:02:21.201Z,20.93
2016-09-03T13:03:21.858Z,20.87
2016-09-03T13:04:22.489Z,20.87
2016-09-03T13:05:23.141Z,20.87
2016-09-03T13:06:23.804Z,20.85